Archival Weather

Norman Y Mineta San Jose Intl

San Jose, California (KSJC)

Report from: Wednesday, February 21, 2024 7:53 PM PST
Current time: Monday, June 17, 2024 12:43 AM PDT

Current weather – Weather history – Daily summaries
Weather forecast

Temperature11.7°C (53.1°F)
Dew point7.8°C (46.0°F)
Winds 7 kts (3.6 m/s, 8.1 mph) Northwest (320°)
Visibility10 mi. (16.1 km)
Clouds Sky clear
Altimeter30.22 in.Hg (1023 mB)
Relative humidity77 %
Density altitude-581 ft. (-177 m)
Sea-level pressure102.3 kPa (1023 mB, 30.22 in.Hg)
Remarks Automated weather observing station with precipitation discriminator
Flight conditions Visual Meteorological Conditions
Raw dataKSJC 220353Z 32007KT 10SM CLR 12/08 A3022 RMK AO2 SLP233 T01170078
An error has occurred. This application may no longer respond until reloaded. Reload 🗙